createdAt,value
2023-10-14T00:01:10.447Z,99.07
2023-10-14T00:03:36.924Z,98.61
2023-10-14T00:06:04.692Z,98.34
2023-10-14T00:08:31.064Z,97.51
2023-10-14T00:11:00.446Z,97.75
2023-10-14T00:13:26.826Z,97.59
2023-10-14T00:15:53.225Z,97.21
2023-10-14T00:18:19.606Z,97.52
2023-10-14T00:20:45.990Z,96.33
2023-10-14T00:23:12.342Z,95.93
2023-10-14T00:25:38.691Z,95.94
2023-10-14T00:28:05.565Z,95.90
2023-10-14T00:30:31.947Z,95.99
2023-10-14T00:32:58.578Z,95.15
2023-10-14T00:35:24.969Z,95.29
2023-10-14T00:37:51.341Z,94.91
2023-10-14T00:40:17.714Z,94.89
2023-10-14T00:42:44.066Z,94.13
2023-10-14T00:45:10.748Z,93.14
2023-10-14T00:47:37.950Z,92.45
2023-10-14T00:50:04.769Z,93.68
2023-10-14T00:52:31.133Z,97.07
2023-10-14T00:54:57.939Z,98.58
2023-10-14T00:57:24.377Z,100.00
2023-10-14T00:59:52.443Z,100.00
2023-10-14T01:02:19.388Z,100.00
2023-10-14T01:04:45.748Z,100.00
2023-10-14T01:07:12.252Z,100.00
2023-10-14T01:09:38.751Z,100.00
2023-10-14T01:12:05.190Z,100.00
2023-10-14T01:14:31.575Z,100.00
2023-10-14T01:16:57.952Z,100.00
2023-10-14T01:19:24.394Z,100.00
2023-10-14T01:21:51.028Z,100.00
2023-10-14T01:24:17.649Z,100.00
2023-10-14T01:26:44.814Z,100.00
2023-10-14T01:29:11.158Z,100.00
2023-10-14T01:31:43.340Z,100.00
2023-10-14T01:34:10.014Z,100.00
2023-10-14T01:36:36.739Z,100.00
2023-10-14T01:39:03.250Z,100.00
2023-10-14T01:41:29.626Z,100.00
2023-10-14T01:43:55.967Z,100.00
2023-10-14T01:46:22.382Z,100.00
2023-10-14T01:48:48.816Z,100.00
2023-10-14T01:51:15.182Z,100.00
2023-10-14T01:53:41.542Z,100.00
2023-10-14T01:56:07.957Z,100.00
2023-10-14T01:58:35.136Z,100.00
2023-10-14T02:01:10.735Z,100.00
2023-10-14T02:03:37.994Z,100.00
2023-10-14T02:06:04.651Z,100.00
2023-10-14T02:08:31.033Z,100.00
2023-10-14T02:10:57.381Z,100.00
2023-10-14T02:13:23.875Z,100.00
2023-10-14T02:15:50.800Z,100.00
2023-10-14T02:18:20.380Z,100.00
2023-10-14T02:20:46.800Z,100.00
2023-10-14T02:23:13.157Z,100.00
2023-10-14T02:25:39.511Z,100.00
2023-10-14T02:28:06.114Z,100.00
2023-10-14T02:30:32.490Z,100.00
2023-10-14T02:32:59.031Z,100.00
2023-10-14T02:35:25.525Z,100.00
2023-10-14T02:37:51.956Z,100.00
2023-10-14T02:40:18.377Z,100.00
2023-10-14T02:42:44.767Z,100.00
2023-10-14T02:45:11.168Z,100.00
2023-10-14T02:47:37.577Z,100.00
2023-10-14T02:50:04.202Z,100.00
2023-10-14T02:52:31.008Z,100.00
2023-10-14T02:54:58.083Z,100.00
2023-10-14T02:57:24.515Z,100.00
2023-10-14T02:59:52.256Z,100.00
2023-10-14T03:02:20.693Z,100.00
2023-10-14T03:04:48.717Z,100.00
2023-10-14T03:07:16.572Z,100.00
2023-10-14T03:09:43.017Z,100.00
2023-10-14T03:12:09.371Z,100.00
2023-10-14T03:14:35.747Z,100.00
2023-10-14T03:17:02.165Z,100.00
2023-10-14T03:19:28.598Z,100.00
2023-10-14T03:21:54.955Z,100.00
2023-10-14T03:24:21.348Z,100.00
2023-10-14T03:26:47.750Z,100.00
2023-10-14T03:29:14.124Z,100.00
2023-10-14T03:31:40.540Z,100.00
2023-10-14T03:34:06.957Z,100.00
2023-10-14T03:36:33.371Z,100.00
2023-10-14T03:38:59.769Z,100.00
2023-10-14T03:41:26.566Z,100.00
2023-10-14T03:43:53.688Z,100.00
2023-10-14T03:46:20.213Z,100.00
2023-10-14T03:48:46.690Z,100.00
2023-10-14T03:51:17.339Z,100.00
2023-10-14T03:53:43.744Z,100.00
2023-10-14T03:56:10.092Z,100.00
2023-10-14T03:58:36.442Z,100.00
2023-10-14T04:01:03.286Z,100.00
2023-10-14T04:03:30.023Z,100.00
2023-10-14T04:05:56.460Z,100.00
2023-10-14T04:08:22.809Z,100.00
2023-10-14T04:10:49.312Z,100.00
2023-10-14T04:13:15.686Z,100.00
2023-10-14T04:15:42.317Z,100.00
2023-10-14T04:18:08.755Z,100.00
2023-10-14T04:20:35.190Z,100.00
2023-10-14T04:23:01.523Z,100.00
2023-10-14T04:25:27.910Z,100.00
2023-10-14T04:27:54.598Z,100.00
2023-10-14T04:30:26.136Z,100.00
2023-10-14T04:32:52.829Z,100.00
2023-10-14T04:35:19.257Z,100.00
2023-10-14T04:37:45.845Z,100.00
2023-10-14T04:40:12.634Z,100.00
2023-10-14T04:42:39.068Z,100.00
2023-10-14T04:45:05.913Z,100.00
2023-10-14T04:47:32.359Z,100.00
2023-10-14T04:49:58.766Z,100.00
2023-10-14T04:52:25.300Z,100.00
2023-10-14T04:54:51.774Z,100.00
2023-10-14T04:57:18.162Z,100.00
2023-10-14T04:59:44.533Z,100.00
2023-10-14T05:02:10.894Z,100.00
2023-10-14T05:04:37.275Z,100.00
2023-10-14T05:07:03.731Z,100.00
2023-10-14T05:09:30.305Z,100.00
2023-10-14T05:11:57.325Z,100.00
2023-10-14T05:14:23.724Z,100.00
2023-10-14T05:16:50.143Z,100.00
2023-10-14T05:19:16.714Z,100.00
2023-10-14T05:21:43.194Z,100.00
2023-10-14T05:24:11.646Z,100.00
2023-10-14T05:26:39.017Z,100.00
2023-10-14T05:29:05.661Z,100.00
2023-10-14T05:31:32.157Z,100.00
2023-10-14T05:33:58.612Z,100.00
2023-10-14T05:36:24.991Z,100.00
2023-10-14T05:38:51.352Z,99.39
2023-10-14T05:41:17.701Z,99.04
2023-10-14T05:43:44.080Z,99.79
2023-10-14T05:46:10.630Z,99.77
2023-10-14T05:48:37.094Z,100.00
2023-10-14T05:51:03.491Z,100.00
2023-10-14T05:53:29.866Z,100.00
2023-10-14T05:56:03.716Z,99.89
2023-10-14T05:58:30.116Z,100.00
2023-10-14T06:00:56.841Z,99.76
2023-10-14T06:03:23.398Z,99.42
2023-10-14T06:05:49.768Z,99.19
2023-10-14T06:08:16.121Z,99.88
2023-10-14T06:10:42.489Z,99.98
2023-10-14T06:13:10.325Z,100.00
2023-10-14T06:15:41.180Z,100.00
2023-10-14T06:18:07.898Z,100.00
2023-10-14T06:20:34.470Z,100.00
2023-10-14T06:23:00.828Z,100.00
2023-10-14T06:25:28.000Z,100.00
2023-10-14T06:27:54.364Z,100.00
2023-10-14T06:30:21.192Z,100.00
2023-10-14T06:32:48.710Z,100.00
2023-10-14T06:35:18.026Z,100.00
2023-10-14T06:37:45.808Z,100.00
2023-10-14T06:40:16.007Z,100.00
2023-10-14T06:42:42.888Z,100.00
2023-10-14T06:45:09.324Z,100.00
2023-10-14T06:47:35.758Z,99.93
2023-10-14T06:50:02.137Z,100.00
2023-10-14T06:52:28.551Z,99.47
2023-10-14T06:54:55.003Z,98.60
2023-10-14T06:57:21.450Z,99.56
2023-10-14T06:59:47.807Z,98.64
2023-10-14T07:02:14.299Z,98.37
2023-10-14T07:04:40.773Z,98.31
2023-10-14T07:07:07.756Z,98.27
2023-10-14T07:09:34.193Z,98.48
2023-10-14T07:12:00.645Z,97.69
2023-10-14T07:14:27.042Z,96.73
2023-10-14T07:16:53.510Z,96.09
2023-10-14T07:19:20.023Z,95.69
2023-10-14T07:21:46.477Z,93.74
2023-10-14T07:24:12.862Z,93.64
2023-10-14T07:26:39.219Z,91.97
2023-10-14T07:29:05.690Z,92.73
2023-10-14T07:31:33.475Z,93.26
2023-10-14T07:34:00.464Z,92.37
2023-10-14T07:36:27.066Z,91.26
2023-10-14T07:38:53.478Z,91.65
2023-10-14T07:41:19.823Z,91.69
2023-10-14T07:43:46.235Z,90.91
2023-10-14T07:46:12.798Z,90.00
2023-10-14T07:48:39.377Z,90.38
2023-10-14T07:51:14.553Z,89.78
2023-10-14T07:53:52.241Z,88.42
2023-10-14T07:56:18.602Z,88.21
2023-10-14T07:58:45.034Z,89.19
2023-10-14T08:01:16.826Z,88.14
2023-10-14T08:03:43.428Z,87.44
2023-10-14T08:06:10.432Z,85.34
2023-10-14T08:08:37.294Z,83.19
2023-10-14T08:11:03.669Z,83.68
2023-10-14T08:13:30.044Z,85.43
2023-10-14T08:15:57.337Z,86.31
2023-10-14T08:18:24.860Z,85.55
2023-10-14T08:20:55.266Z,87.12
2023-10-14T08:23:26.286Z,85.41
2023-10-14T08:25:53.279Z,84.84
2023-10-14T08:28:19.682Z,85.90
2023-10-14T08:30:46.032Z,83.66
2023-10-14T08:33:13.467Z,83.79
2023-10-14T08:35:39.908Z,84.28
2023-10-14T08:38:06.265Z,84.00
2023-10-14T08:40:33.045Z,82.80
2023-10-14T08:43:04.067Z,81.68
2023-10-14T08:45:30.663Z,81.22
2023-10-14T08:47:57.913Z,80.36
2023-10-14T08:50:25.503Z,81.04
2023-10-14T08:52:53.226Z,79.33
2023-10-14T08:55:19.850Z,78.77
2023-10-14T08:57:47.398Z,80.72
2023-10-14T09:00:21.996Z,78.52
2023-10-14T09:02:53.241Z,80.27
2023-10-14T09:05:19.834Z,78.38
2023-10-14T09:07:50.558Z,77.74
2023-10-14T09:10:19.491Z,78.54
2023-10-14T09:12:59.260Z,76.99
2023-10-14T09:15:27.709Z,78.42
2023-10-14T09:17:54.776Z,77.53
2023-10-14T09:20:33.543Z,74.57
2023-10-14T09:23:22.644Z,76.04
2023-10-14T09:25:50.174Z,77.89
2023-10-14T09:28:21.132Z,74.83
2023-10-14T09:30:48.920Z,75.68
2023-10-14T09:33:15.810Z,73.22
2023-10-14T09:35:46.794Z,72.46
2023-10-14T09:38:13.816Z,71.35
2023-10-14T09:40:41.024Z,71.25
2023-10-14T09:43:08.401Z,72.96
2023-10-14T09:45:36.013Z,73.26
2023-10-14T09:48:04.295Z,70.13
2023-10-14T09:50:32.680Z,69.23
2023-10-14T09:53:00.750Z,68.69
2023-10-14T09:55:27.704Z,67.98
2023-10-14T09:57:55.309Z,66.53
2023-10-14T10:00:22.331Z,68.00
2023-10-14T10:02:52.399Z,67.99
2023-10-14T10:05:26.125Z,69.08
2023-10-14T10:08:11.146Z,69.38
2023-10-14T10:10:39.350Z,66.75
2023-10-14T10:13:06.280Z,67.03
2023-10-14T10:15:32.921Z,65.95
2023-10-14T10:18:08.653Z,67.36
2023-10-14T10:20:35.509Z,67.32
2023-10-14T10:23:02.179Z,68.42
2023-10-14T10:25:37.820Z,66.12
2023-10-14T10:28:26.072Z,63.36
2023-10-14T10:30:56.991Z,65.41
2023-10-14T10:33:23.485Z,65.52
2023-10-14T10:36:04.721Z,65.48
2023-10-14T10:38:32.109Z,67.22
2023-10-14T10:41:22.057Z,64.08
2023-10-14T10:43:48.546Z,64.69
2023-10-14T10:46:36.870Z,65.05
2023-10-14T10:49:03.360Z,64.17
2023-10-14T10:51:30.160Z,63.65
2023-10-14T10:53:58.088Z,64.25
2023-10-14T10:56:27.284Z,61.20
2023-10-14T10:58:53.994Z,59.75
2023-10-14T11:01:21.272Z,62.32
2023-10-14T11:03:47.883Z,60.56
2023-10-14T11:06:14.719Z,62.83
2023-10-14T11:08:41.128Z,64.18
2023-10-14T11:11:07.595Z,63.50
2023-10-14T11:13:34.204Z,65.43
2023-10-14T11:16:07.479Z,62.38
2023-10-14T11:18:38.980Z,62.90
2023-10-14T11:21:06.609Z,62.44
2023-10-14T11:23:33.175Z,62.88
2023-10-14T11:26:09.119Z,62.95
2023-10-14T11:28:35.773Z,64.42
2023-10-14T11:31:02.356Z,61.61
2023-10-14T11:33:28.809Z,64.07
2023-10-14T11:35:55.154Z,61.89
2023-10-14T11:38:25.968Z,63.28
2023-10-14T11:40:52.472Z,62.40
2023-10-14T11:43:19.217Z,60.77
2023-10-14T11:45:45.737Z,59.12
2023-10-14T11:48:33.574Z,59.24
2023-10-14T11:51:04.382Z,58.42
2023-10-14T11:53:32.525Z,59.49
2023-10-14T11:56:05.465Z,57.77
2023-10-14T11:58:34.992Z,58.18
2023-10-14T12:01:01.745Z,59.29
2023-10-14T12:03:28.661Z,56.00
2023-10-14T12:05:59.323Z,56.36
2023-10-14T12:08:30.942Z,58.02
2023-10-14T12:10:57.805Z,56.24
2023-10-14T12:13:33.876Z,56.93
2023-10-14T12:16:08.969Z,59.22
2023-10-14T12:18:35.846Z,58.74
2023-10-14T12:21:03.387Z,59.65
2023-10-14T12:23:31.008Z,60.49
2023-10-14T12:25:57.359Z,61.40
2023-10-14T12:28:23.790Z,59.89
2023-10-14T12:30:50.214Z,61.05
2023-10-14T12:33:16.699Z,61.88
2023-10-14T12:35:43.118Z,60.71
2023-10-14T12:38:09.499Z,61.15
2023-10-14T12:40:35.949Z,60.60
2023-10-14T12:43:02.388Z,59.62
2023-10-14T12:45:29.145Z,58.36
2023-10-14T12:47:55.893Z,57.90
2023-10-14T12:50:23.282Z,57.85
2023-10-14T12:52:54.223Z,53.95
2023-10-14T12:55:20.681Z,53.49
2023-10-14T12:57:47.191Z,53.67
2023-10-14T13:00:13.751Z,57.02
2023-10-14T13:02:40.137Z,56.11
2023-10-14T13:05:06.707Z,56.47
2023-10-14T13:07:33.153Z,56.97
2023-10-14T13:09:59.602Z,54.89
2023-10-14T13:12:26.058Z,52.88
2023-10-14T13:14:52.405Z,54.93
2023-10-14T13:17:18.873Z,53.52
2023-10-14T13:19:45.251Z,56.20
2023-10-14T13:22:11.834Z,54.09
2023-10-14T13:24:39.097Z,54.00
2023-10-14T13:27:06.055Z,55.67
2023-10-14T13:29:33.427Z,53.14
2023-10-14T13:31:59.874Z,53.08
2023-10-14T13:34:26.399Z,51.63
2023-10-14T13:36:58.300Z,51.68
2023-10-14T13:39:25.433Z,51.28
2023-10-14T13:41:52.048Z,53.29
2023-10-14T13:44:18.517Z,54.87
2023-10-14T13:46:45.331Z,56.87
2023-10-14T13:49:11.807Z,58.43
2023-10-14T13:51:38.337Z,60.02
2023-10-14T13:54:04.933Z,61.95
2023-10-14T13:56:31.294Z,64.26
2023-10-14T13:58:57.847Z,68.00
2023-10-14T14:01:24.312Z,67.33
2023-10-14T14:03:50.815Z,68.27
2023-10-14T14:06:17.347Z,69.70
2023-10-14T14:08:43.732Z,70.00
2023-10-14T14:11:10.088Z,70.80
2023-10-14T14:13:36.488Z,72.24
2023-10-14T14:16:03.307Z,71.45
2023-10-14T14:18:30.060Z,68.92
2023-10-14T14:20:56.414Z,68.49
2023-10-14T14:23:22.802Z,65.32
2023-10-14T14:25:49.164Z,61.70
2023-10-14T14:28:15.602Z,60.36
2023-10-14T14:30:42.052Z,61.01
2023-10-14T14:33:08.434Z,60.31
2023-10-14T14:35:35.018Z,59.53
2023-10-14T14:38:01.935Z,59.65
2023-10-14T14:40:28.687Z,59.24
2023-10-14T14:42:56.768Z,60.73
2023-10-14T14:45:25.153Z,59.72
2023-10-14T14:47:55.279Z,60.38
2023-10-14T14:50:23.222Z,60.80
2023-10-14T14:52:49.770Z,63.39
2023-10-14T14:55:16.982Z,65.03
2023-10-14T14:57:46.553Z,65.32
2023-10-14T15:00:14.599Z,64.05
2023-10-14T15:02:44.283Z,64.62
2023-10-14T15:05:11.422Z,58.65
2023-10-14T15:07:37.819Z,56.79
2023-10-14T15:10:07.943Z,56.82
2023-10-14T15:12:34.410Z,57.06
2023-10-14T15:15:00.750Z,59.87
2023-10-14T15:17:27.276Z,61.63
2023-10-14T15:19:53.772Z,64.54
2023-10-14T15:22:20.192Z,66.79
2023-10-14T15:24:46.618Z,66.83
2023-10-14T15:27:13.005Z,67.18
2023-10-14T15:29:39.368Z,67.95
2023-10-14T15:32:08.385Z,67.62
2023-10-14T15:34:34.845Z,68.21
2023-10-14T15:37:01.317Z,68.07
2023-10-14T15:39:27.715Z,69.16
2023-10-14T15:41:54.106Z,69.49
2023-10-14T15:44:20.469Z,70.15
2023-10-14T15:46:46.878Z,73.72
2023-10-14T15:49:13.370Z,77.89
2023-10-14T15:51:39.814Z,80.70
2023-10-14T15:54:06.441Z,81.98
2023-10-14T15:56:32.789Z,80.32
2023-10-14T15:58:59.179Z,78.92
2023-10-14T16:01:25.858Z,79.48
2023-10-14T16:03:52.399Z,79.39
2023-10-14T16:06:19.161Z,79.63
2023-10-14T16:08:45.526Z,79.06
2023-10-14T16:11:11.876Z,80.43
2023-10-14T16:13:38.283Z,78.67
2023-10-14T16:16:04.836Z,79.97
2023-10-14T16:18:31.227Z,78.59
2023-10-14T16:20:57.676Z,78.93
2023-10-14T16:23:24.077Z,79.11
2023-10-14T16:25:50.464Z,79.88
2023-10-14T16:28:16.973Z,79.94
2023-10-14T16:30:43.824Z,79.36
2023-10-14T16:33:10.199Z,78.22
2023-10-14T16:35:36.600Z,77.47
2023-10-14T16:38:03.483Z,78.03
2023-10-14T16:40:30.070Z,77.50
2023-10-14T16:43:06.945Z,77.64
2023-10-14T16:45:33.639Z,77.38
2023-10-14T16:48:00.046Z,79.17
2023-10-14T16:50:26.931Z,78.79
2023-10-14T16:52:55.936Z,79.57
2023-10-14T16:55:23.024Z,81.57
2023-10-14T16:57:50.663Z,82.00
2023-10-14T17:00:19.338Z,81.25
2023-10-14T17:02:47.639Z,82.10
2023-10-14T17:05:15.724Z,81.98
2023-10-14T17:07:42.325Z,81.53
2023-10-14T17:10:12.534Z,82.20
2023-10-14T17:12:38.911Z,82.25
2023-10-14T17:15:06.560Z,81.31
2023-10-14T17:17:33.664Z,80.24
2023-10-14T17:20:00.128Z,81.25
2023-10-14T17:22:26.572Z,80.26
2023-10-14T17:24:52.966Z,80.82
2023-10-14T17:27:19.348Z,80.44
2023-10-14T17:29:45.733Z,80.11
2023-10-14T17:32:12.170Z,80.51
2023-10-14T17:34:38.951Z,82.14
2023-10-14T17:37:05.465Z,82.02
2023-10-14T17:39:31.902Z,81.70
2023-10-14T17:41:58.344Z,81.80
2023-10-14T17:44:24.680Z,81.96
2023-10-14T17:46:51.100Z,82.84
2023-10-14T17:49:17.512Z,82.82
2023-10-14T17:51:43.991Z,82.55
2023-10-14T17:54:10.360Z,82.59
2023-10-14T17:56:36.842Z,83.08
2023-10-14T17:59:03.314Z,82.38
2023-10-14T18:01:29.854Z,82.67
2023-10-14T18:03:56.317Z,82.38
2023-10-14T18:06:23.331Z,82.60
2023-10-14T18:08:49.719Z,82.86
2023-10-14T18:11:16.068Z,83.01
2023-10-14T18:13:42.453Z,82.78
2023-10-14T18:16:10.324Z,82.37
2023-10-14T18:18:37.182Z,81.37
2023-10-14T18:21:11.028Z,79.85
2023-10-14T18:23:37.444Z,80.16
2023-10-14T18:26:07.481Z,79.66
2023-10-14T18:28:33.893Z,79.37
2023-10-14T18:31:00.309Z,79.38
2023-10-14T18:33:26.786Z,79.50
2023-10-14T18:35:53.264Z,79.08
2023-10-14T18:38:19.827Z,80.26
2023-10-14T18:40:46.361Z,79.97
2023-10-14T18:43:13.600Z,79.35
2023-10-14T18:45:39.968Z,79.09
2023-10-14T18:48:07.370Z,78.91
2023-10-14T18:50:36.303Z,77.98
2023-10-14T18:53:04.604Z,77.92
2023-10-14T18:55:31.087Z,78.64
2023-10-14T18:57:59.477Z,77.30
2023-10-14T19:00:25.982Z,77.04
2023-10-14T19:02:53.404Z,76.99
2023-10-14T19:05:21.129Z,76.12
2023-10-14T19:07:47.610Z,76.67
2023-10-14T19:10:14.743Z,76.56
2023-10-14T19:12:45.808Z,76.64
2023-10-14T19:15:13.803Z,76.92
2023-10-14T19:17:41.761Z,76.63
2023-10-14T19:20:10.330Z,77.41
2023-10-14T19:22:37.463Z,77.73
2023-10-14T19:25:03.940Z,77.97
2023-10-14T19:27:35.262Z,79.33
2023-10-14T19:30:07.323Z,80.04
2023-10-14T19:32:35.296Z,80.10
2023-10-14T19:35:01.765Z,80.11
2023-10-14T19:37:28.182Z,81.41
2023-10-14T19:39:54.560Z,81.06
2023-10-14T19:42:20.929Z,80.62
2023-10-14T19:44:51.504Z,80.82
2023-10-14T19:47:17.905Z,82.18
2023-10-14T19:49:52.169Z,80.94
2023-10-14T19:52:19.142Z,81.19
2023-10-14T19:54:45.526Z,80.78
2023-10-14T19:57:11.913Z,82.13
2023-10-14T19:59:38.316Z,82.66
2023-10-14T20:02:04.775Z,82.42
2023-10-14T20:04:31.356Z,82.07
2023-10-14T20:06:57.808Z,82.15
2023-10-14T20:09:24.240Z,82.36
2023-10-14T20:11:50.582Z,81.87
2023-10-14T20:14:16.965Z,82.18
2023-10-14T20:16:43.410Z,81.83
2023-10-14T20:19:09.914Z,82.09
2023-10-14T20:21:37.384Z,81.92
2023-10-14T20:24:04.210Z,81.90
2023-10-14T20:26:30.685Z,82.48
2023-10-14T20:28:57.252Z,82.44
2023-10-14T20:31:23.782Z,83.00
2023-10-14T20:33:50.305Z,82.81
2023-10-14T20:36:16.717Z,82.63
2023-10-14T20:38:43.455Z,82.55
2023-10-14T20:41:09.849Z,82.31
2023-10-14T20:43:36.409Z,83.05
2023-10-14T20:46:06.208Z,83.01
2023-10-14T20:48:32.589Z,82.73
2023-10-14T20:50:58.970Z,82.52
2023-10-14T20:53:25.337Z,83.20
2023-10-14T20:55:51.729Z,83.71
2023-10-14T20:58:18.326Z,83.42
2023-10-14T21:00:44.773Z,83.57
2023-10-14T21:03:12.571Z,84.57
2023-10-14T21:05:51.510Z,85.63
2023-10-14T21:08:17.940Z,86.19
2023-10-14T21:10:49.308Z,86.93
2023-10-14T21:13:18.133Z,86.02
2023-10-14T21:15:45.635Z,86.16
2023-10-14T21:18:12.480Z,85.86
2023-10-14T21:20:43.101Z,86.04
2023-10-14T21:23:12.977Z,86.41
2023-10-14T21:25:39.857Z,86.24
2023-10-14T21:28:06.632Z,85.53
2023-10-14T21:30:33.231Z,86.28
2023-10-14T21:32:59.654Z,86.62
2023-10-14T21:35:26.338Z,85.79
2023-10-14T21:37:52.910Z,85.96
2023-10-14T21:40:19.404Z,86.64
2023-10-14T21:42:46.467Z,86.34
2023-10-14T21:45:14.134Z,87.08
2023-10-14T21:47:41.651Z,87.37
2023-10-14T21:50:09.760Z,87.15
2023-10-14T21:52:36.109Z,86.73
2023-10-14T21:55:02.529Z,86.60
2023-10-14T21:57:28.911Z,86.37
2023-10-14T21:59:55.422Z,86.26
2023-10-14T22:02:21.982Z,85.57
2023-10-14T22:04:48.504Z,86.23
2023-10-14T22:07:15.554Z,85.94
2023-10-14T22:09:42.044Z,86.00
2023-10-14T22:12:08.602Z,85.70
2023-10-14T22:14:35.016Z,85.60
2023-10-14T22:17:01.430Z,85.43
2023-10-14T22:19:27.836Z,85.81
2023-10-14T22:21:55.394Z,85.56
2023-10-14T22:24:21.794Z,86.56
2023-10-14T22:26:48.322Z,86.34
2023-10-14T22:29:14.783Z,86.50
2023-10-14T22:31:41.234Z,86.23
2023-10-14T22:34:07.617Z,85.98
2023-10-14T22:36:34.037Z,85.33
2023-10-14T22:39:00.389Z,85.41
2023-10-14T22:41:26.737Z,86.48
2023-10-14T22:43:53.382Z,86.69
2023-10-14T22:46:19.809Z,86.41
2023-10-14T22:48:46.259Z,86.55
2023-10-14T22:51:12.659Z,86.04
2023-10-14T22:53:39.685Z,86.27
2023-10-14T22:56:06.032Z,86.25
2023-10-14T22:58:35.538Z,85.93
2023-10-14T23:01:02.054Z,85.97
2023-10-14T23:03:28.467Z,86.20
2023-10-14T23:05:54.874Z,85.71
2023-10-14T23:08:21.280Z,85.49
2023-10-14T23:10:47.690Z,86.14
2023-10-14T23:13:14.084Z,86.49
2023-10-14T23:15:40.708Z,85.84
2023-10-14T23:18:07.649Z,85.83
2023-10-14T23:20:34.268Z,85.40
2023-10-14T23:23:01.541Z,85.67
2023-10-14T23:25:28.298Z,85.67
2023-10-14T23:27:56.078Z,86.44
2023-10-14T23:30:23.633Z,85.95
2023-10-14T23:32:56.306Z,86.01
2023-10-14T23:35:24.311Z,86.12
2023-10-14T23:37:53.288Z,86.81
2023-10-14T23:40:21.794Z,86.79
2023-10-14T23:42:50.366Z,86.59
2023-10-14T23:45:17.573Z,87.04
2023-10-14T23:47:45.022Z,86.66
2023-10-14T23:50:13.080Z,86.64
2023-10-14T23:52:44.124Z,87.06
2023-10-14T23:55:11.214Z,86.80
2023-10-14T23:57:40.860Z,86.90
